Aérodrome :
LOGIN :

S'inscrire | Disclaimer

   EN    FR    IT 

 










Légende :    VFR   VFR Marginal   IFR   IFR Intensif   IFR Très Intensif
Visi : 
Plafond : 
>= 8 km
>= 3000ft
5 à 8 km
1000 à 3000 ft
1500m à 5 km
500 à 1000 ft
800 à 1500m
200 à 500 ft
< 800m
< 200 ft
Symboles :   Orages  Brouillard  Fortes neiges  Fortes précipitations  Vent > 20 kt
SIGMETs :   Divers  Orages  Givrage  Turbulence  Onde Orograph.  Cendres Volcan.







- Altitude de l'aérodrome : 465 ft
- Code IATA : LEJ


EDDP - Leipzig Halle

DERNIER METAR :
  • 260720Z 25020KT 9999 FEW030 11/05 Q1013 TEMPO 25020G35KT

METARs EXPIRÉS :
  • 260650Z 25019KT 9999 FEW020 11/05 Q1013 TEMPO 25015G30KT
  • 260620Z 25014KT CAVOK 10/06 Q1013 NOSIG
  • 260550Z 25014KT CAVOK 09/06 Q1012 NOSIG
  • 260520Z 23009KT CAVOK 09/07 Q1012 NOSIG
  • 260450Z 22006KT CAVOK 08/06 Q1012 NOSIG

TAF TAF EDDP
Valide du 26 à 06h jusqu'au 27 à 06h UTC


260500Z 2606/2706 24008KT CAVOK
BECMG 2607/2610 25015G25KT SCT020CB
TEMPO 2609/2615 26025G35KT SHRA BKN020CB
BECMG 2616/2618 22007KT
BECMG 2619/2621 CAVOK
Pas de NOTAMs connus pour ce terrain.



MET'MAP, la Météo Aéronautique d'un coup d'oeil ! - Copyright ORBIFLY Décembre 2007 - Disclaimer

ORBIFLY MET'MAP TEAM :

Programmation & Développement : Alexandra Zaïnal
Conception & Développement : Baudouin d'Aumeries
Co-Programmation & Développement : Marc-Olivier Méhu
Soutien technique & logistique : Manuel Goepfert

Contact : metmap@orbifly.com




SOURCES & CREDITS :

   NOAA